Terminal Aerodrome Forecast
Issued by NWS

Home | Current Version | Previous Version | Text Only | Print | Product List | Glossary On
Versions: 1 2 3 4 5 6 7 8 9 10 11 12 13 14 15 16
000
FTUS43 KGRB 280240 AAB
TAFMTW
TAF AMD
KMTW 280240Z 2803/2824 09004KT 4SM BR SCT003 OVC035
      TEMPO 2803/2806 1SM -SHRA BR BKN003
     FM280600 15007KT 2SM BR OVC008
     FM280900 16006KT 1 1/2SM BR OVC003
     FM281500 17010KT P6SM VCSH OVC008
     FM282000 17012KT P6SM VCSH BKN035=

USA.gov is the U.S. government's official web portal to all federal, state and local government web resources and services.